McClellanville, South Carolina
Current Conditions -  °F | °C
As of 8:55 PM on Saturday 20 Dec 2014 (Local Time) from KGGE Reporting Station
Overcast Overcast  
Wind Chill: 40°   Ceiling: 900
Heat Index: 45°   Visibility: 10mi
Dew Point: 45°   Wind: 8mph
Humidity: 100%   Direction: 20°NNE
Pressure: 30.25"   Gusts: NA
Location:  33.09°N, 79.46°W
Report Text: KGGE 210155Z AUTO 02007KT 10SM OVC009 07/07 A3025 RMK AO2
Loading
Personal Weather Stations






























Interactive Weather Map New forecast layout! Learn more

10-Day Weather Forecast

Advertisements
Track Severe Weather on mobile